Latest Weather Observations for Launceston Airport

IDT60801

Issued at 5:31 pm EST Thursday 18 July 2019 (issued every 10 minutes, with the page automatically refreshed every 10 minutes)

About weather observations | Map of weather stations | Latest weather observations for TAS | Other Formats
Station Details ID: 091311 Name: LAUNCESTON AIRPORT Lat: -41.55 Lon: 147.22 Height: 166.9 m
Data from the previous 72 hours. | See also: Recent months at Launceston Airport
Date/Time
EST
Temp
°C
App
Temp
°C
Dew
Point
°C
Rel
Hum
%
Delta-T
°C
Wind Press
QNH
hPa
Press
MSL
hPa
Rain since
9am
mm
Dir  Spd
km/h
Gust
km/h
Spd
kts
Gust
kts
18/05:30pm 7.9 2.4 4.1 77 1.7 NNW 22 28 12 15 1008.3 1008.7 0.0
18/05:00pm 7.6 2.6 3.8 77 1.7 N 19 22 10 12 1008.4 1008.8 0.0
18/04:30pm 8.0 3.4 3.7 74 1.9 N 17 26 9 14 1008.8 1009.2 0.0
18/04:00pm 9.2 3.7 4.0 70 2.3 N 22 32 12 17 1009.3 1009.7 0.0
18/03:30pm 9.4 3.4 3.6 67 2.5 N 24 32 13 17 1009.5 1009.9 0.0
18/03:00pm 8.9 3.0 3.9 71 2.2 NNW 24 30 13 16 1009.5 1009.9 0.0
18/02:30pm 9.3 2.5 3.3 66 2.6 NNW 28 37 15 20 1009.6 1010.0 0.0
18/02:00pm 9.6 3.5 2.9 63 2.9 NNW 24 35 13 19 1009.5 1009.9 0.0
18/01:30pm 10.1 4.1 3.6 64 2.9 NNW 24 32 13 17 1009.6 1010.0 0.0
18/01:00pm 9.1 3.7 2.7 64 2.7 N 20 26 11 14 1009.9 1010.3 0.0
18/12:30pm 8.3 2.1 2.3 66 2.5 N 24 28 13 15 1010.5 1010.9 0.0
18/12:00pm 8.8 2.3 2.6 65 2.6 N 26 32 14 17 1010.8 1011.2 0.0
18/11:30am 7.9 1.7 2.0 66 2.5 NNW 24 32 13 17 1011.0 1011.4 0.0
18/11:00am 7.8 1.6 2.1 67 2.4 NNW 24 33 13 18 1011.4 1011.8 0.0
18/10:30am 6.9 1.9 1.4 68 2.2 N 17 22 9 12 1011.2 1011.6 0.0
18/10:00am 6.0 1.4 1.3 72 1.9 NNW 15 19 8 10 1011.0 1011.4 0.0
18/09:30am 5.0 -0.1 0.6 73 1.7 NNW 17 19 9 10 1011.0 1011.4 0.0
18/09:00am 3.7 -0.4 0.1 77 1.4 NNE 11 13 6 7 1011.2 1011.6 0.0
18/08:30am 2.0 -1.8 -0.6 83 0.9 NNW 9 9 5 5 1010.7 1011.1 0.0
18/08:00am 1.1 -2.4 -1.3 84 0.9 NNE 7 9 4 5 1010.0 1010.4 0.0
18/07:30am 1.6 -2.7 -2.0 77 1.3 NNW 11 13 6 7 1010.0 1010.4 0.0
18/07:00am 4.1 0.6 -1.1 69 1.9 WNW 7 11 4 6 1009.4 1009.8 0.0
18/06:30am 4.3 0.1 -0.7 70 1.9 NNW 11 13 6 7 1009.1 1009.5 0.0
18/06:00am 2.6 -0.9 -1.7 73 1.5 N 7 13 4 7 1008.4 1008.8 0.0
18/05:30am 3.8 -1.2 -1.2 70 1.8 WNW 15 24 8 13 1008.5 1008.9 0.0
18/05:00am 5.3 1.6 -0.1 68 2.1 NW 9 17 5 9 1008.3 1008.7 0.0
18/04:30am 3.9 -1.3 0.1 76 1.4 W 17 26 9 14 1007.6 1008.0 0.0
18/04:00am 3.4 -0.7 -0.1 78 1.3 N 11 17 6 9 1007.4 1007.8 0.0
18/03:30am 2.7 -1.1 -0.6 79 1.2 SW 9 20 5 11 1007.1 1007.5 0.0
18/03:00am 3.8 0.6 -0.4 74 1.6 NW 6 9 3 5 1007.3 1007.7 0.0
18/02:30am 3.6 0.4 0.8 82 1.1 NW 7 13 4 7 1007.0 1007.4 0.0
18/02:00am 2.9 -2.3 0.1 82 1.1 NNE 17 20 9 11 1006.2 1006.5 0.0
18/01:30am 3.3 -1.8 0.7 83 1.0 NW 17 22 9 12 1005.9 1006.2 0.0
18/01:00am 3.1 -1.4 -0.2 79 1.2 ENE 13 19 7 10 1005.9 1006.2 0.0
18/12:30am 5.6 -1.1 1.5 75 1.6 WNW 26 33 14 18 1004.3 1004.7 0.0
18/12:00am 5.6 -0.7 1.3 74 1.7 WNW 24 32 13 17 1004.6 1005.0 0.0
 
Date/Time
EST
Temp
°C
App
Temp
°C
Dew
Point
°C
Rel
Hum
%
Delta-T
°C
Wind Press
QNH
hPa
Press
MSL
hPa
Rain since
9am
mm
Dir  Spd
km/h
Gust
km/h
Spd
kts
Gust
kts
17/11:30pm 5.2 -0.2 1.3 76 1.6 WNW 19 26 10 14 1004.2 1004.6 0.0
17/11:00pm 5.9 0.4 2.0 76 1.6 WSW 20 26 11 14 1004.5 1004.9 0.0
17/10:30pm 4.9 0.3 1.7 80 1.3 NW 15 22 8 12 1004.2 1004.6 0.0
17/10:00pm 4.6 0.2 0.4 74 1.6 W 13 15 7 8 1003.9 1004.3 0.0
17/09:30pm 5.7 0.7 1.2 73 1.8 WNW 17 24 9 13 1003.8 1004.2 0.0
17/09:00pm 5.9 -0.1 1.1 71 1.9 WNW 22 30 12 16 1003.6 1004.0 0.0
17/08:30pm 6.0 -0.4 1.2 71 1.9 NW 24 32 13 17 1003.0 1003.4 0.0
17/08:00pm 5.7 -0.2 1.6 75 1.7 NW 22 28 12 15 1003.1 1003.5 0.0
17/07:30pm 6.3 0.7 1.2 70 2.0 NW 20 28 11 15 1002.8 1003.2 0.0
17/07:00pm 7.5 1.2 1.8 67 2.4 WNW 24 32 13 17 1002.4 1002.8 0.0
17/06:30pm 7.9 2.0 2.0 66 2.5 W 22 30 12 16 1002.3 1002.7 0.0
17/06:00pm 7.8 1.5 1.6 65 2.6 WNW 24 35 13 19 1001.3 1001.6 0.0
17/05:30pm 8.1 2.9 2.6 68 2.3 NW 19 30 10 16 1001.0 1001.3 0.0
17/05:00pm 8.8 2.3 2.6 65 2.7 NW 26 35 14 19 1000.8 1001.1 0.0
17/04:30pm 9.6 2.9 3.4 65 2.7 WNW 28 39 15 21 1000.7 1001.0 0.0
17/04:10pm 10.1 2.5 2.9 61 3.1 WNW 32 50 17 27 1000.1 1000.4 0.0
17/04:00pm 10.3 3.2 3.3 62 3.1 NW 30 44 16 24 1000.2 1000.5 0.0
17/03:30pm 10.8 3.3 3.6 61 3.2 NW 32 43 17 23 999.7 1000.0 0.0
17/03:00pm 10.6 4.0 4.3 65 2.9 NW 28 39 15 21 999.7 1000.0 0.0
17/02:30pm 11.6 5.1 6.3 70 2.5 NW 30 46 16 25 999.8 1000.1 0.0
17/02:04pm 10.6 3.4 5.8 72 2.2 NW 33 57 18 31 999.8 1000.1 0.0
17/02:00pm 10.6 3.5 6.2 74 2.1 NW 33 48 18 26 1000.2 1000.5 0.0
17/01:35pm 11.3 4.4 6.6 73 2.2 NW 32 50 17 27 1000.7 1001.0 0.0
17/01:30pm 11.2 4.3 6.5 73 2.2 NW 32 41 17 22 1000.7 1001.0 0.0
17/01:00pm 11.1 4.2 6.5 73 2.2 NNW 32 44 17 24 1000.8 1001.1 0.0
17/12:30pm 11.0 4.0 6.0 71 2.3 NNW 32 46 17 25 1001.7 1002.1 0.0
17/12:00pm 11.8 2.8 6.3 69 2.6 NNW 43 57 23 31 1002.2 1002.6 0.0
17/11:37am 11.5 4.1 6.6 72 2.3 NNW 35 54 19 29 1003.1 1003.5 0.0
17/11:30am 11.0 3.5 6.4 73 2.2 NNW 35 44 19 24 1003.4 1003.8 0.0
17/11:00am 10.7 3.6 6.5 75 2.0 NNW 33 44 18 24 1004.4 1004.8 0.0
17/10:30am 10.8 3.3 6.4 74 2.1 NNW 35 46 19 25 1005.1 1005.5 0.0
17/10:00am 10.1 2.7 6.8 80 1.6 N 35 44 19 24 1005.2 1005.6 0.0
17/09:30am 9.1 2.1 6.2 82 1.3 N 32 41 17 22 1006.2 1006.5 0.0
17/09:00am 8.9 3.0 6.0 82 1.3 N 26 35 14 19 1006.5 1006.8 0.0
17/08:30am 8.4 2.5 5.7 83 1.2 N 26 32 14 17 1006.9 1007.3 0.0
17/08:00am 7.7 1.4 5.5 86 1.0 NNW 28 33 15 18 1007.1 1007.5 0.0
17/07:30am 7.5 0.4 5.6 88 0.9 NNW 32 39 17 21 1007.3 1007.7 0.0
17/07:00am 7.2 1.7 5.7 90 0.7 NNW 24 30 13 16 1007.7 1008.1 0.0
17/06:30am 6.9 1.3 5.4 90 0.7 NNW 24 32 13 17 1008.1 1008.5 0.0
17/06:00am 6.6 1.7 5.1 90 0.7 NNW 20 28 11 15 1008.3 1008.7 0.0
17/05:30am 6.2 1.4 4.7 90 0.7 NNW 19 24 10 13 1008.5 1008.9 0.0
17/05:00am 7.0 2.1 5.3 89 0.8 N 20 24 11 13 1008.7 1009.1 0.0
17/04:30am 7.5 2.4 6.0 90 0.7 N 22 30 12 16 1009.1 1009.5 0.0
17/04:00am 7.4 3.2 5.9 90 0.7 N 17 22 9 12 1009.6 1010.0 0.0
17/03:30am 7.6 4.1 5.6 87 0.9 NNW 13 17 7 9 1010.1 1010.5 0.0
17/03:00am 7.7 3.9 5.8 88 0.9 NNW 15 17 8 9 1010.5 1010.9 0.0
17/02:30am 7.1 4.7 5.4 89 0.8 N 7 11 4 6 1010.6 1011.0 0.0
17/02:00am 8.4 3.3 6.0 85 1.1 NW 22 32 12 17 1010.7 1011.1 0.0
17/01:30am 7.1 3.3 5.6 90 0.7 N 15 19 8 10 1010.7 1011.1 0.0
17/01:00am 7.9 3.2 6.2 89 0.8 N 20 28 11 15 1011.2 1011.6 0.0
17/12:30am 8.1 3.7 6.4 89 0.8 N 19 24 10 13 1011.2 1011.6 0.0
17/12:00am 8.0 3.4 6.6 91 0.7 N 20 26 11 14 1011.7 1012.2 0.0
 
Date/Time
EST
Temp
°C
App
Temp
°C
Dew
Point
°C
Rel
Hum
%
Delta-T
°C
Wind Press
QNH
hPa
Press
MSL
hPa
Rain since
9am
mm
Dir  Spd
km/h
Gust
km/h
Spd
kts
Gust
kts
16/11:30pm 8.1 3.5 6.4 89 0.8 N 20 24 11 13 1011.8 1012.3 0.0
16/11:00pm 8.0 3.3 6.0 87 0.9 NNW 20 24 11 13 1012.2 1012.6 0.0
16/10:30pm 7.2 3.2 4.9 85 1.0 NNW 15 17 8 9 1012.1 1012.5 0.0
16/10:00pm 8.9 4.3 5.8 81 1.4 NNW 19 24 10 13 1012.3 1012.7 0.0
16/09:30pm 8.8 3.6 5.4 79 1.5 NW 22 26 12 14 1012.4 1012.8 0.0
16/09:00pm 8.8 4.0 5.4 79 1.5 NNW 20 24 11 13 1012.3 1012.7 0.0
16/08:30pm 9.0 4.2 4.8 75 1.9 NNW 19 26 10 14 1012.5 1012.9 0.0
16/08:00pm 10.5 6.0 4.4 66 2.8 WNW 17 22 9 12 1012.5 1012.9 0.0
16/07:30pm 11.3 6.3 3.6 59 3.4 WNW 19 28 10 15 1012.2 1012.6 0.0
16/07:00pm 10.2 6.3 3.3 62 3.0 WNW 13 17 7 9 1012.2 1012.6 0.0
16/06:30pm 11.1 6.6 4.1 62 3.2 WNW 17 20 9 11 1011.8 1012.3 0.0
16/06:00pm 8.7 4.5 3.7 71 2.2 WNW 15 15 8 8 1011.7 1012.2 0.0
16/05:30pm 10.9 7.9 3.9 62 3.1 WNW 9 11 5 6 1011.5 1012.0 0.0
16/05:00pm 11.5 8.8 3.5 58 3.6 WNW 7 9 4 5 1011.3 1011.7 0.0
16/04:30pm 12.4 9.3 3.4 54 4.0 WSW 9 15 5 8 1011.0 1011.4 0.0
16/04:00pm 12.8 9.2 3.2 52 4.3 WSW 11 15 6 8 1010.8 1011.2 0.0
16/03:30pm 14.3 9.2 2.9 46 5.1 WSW 19 30 10 16 1010.6 1011.0 0.0
16/03:00pm 14.8 8.5 3.9 48 5.0 WSW 26 35 14 19 1010.3 1010.7 0.0
16/02:30pm 15.2 10.9 3.4 45 5.4 WSW 15 20 8 11 1010.3 1010.7 0.0
16/02:00pm 15.1 11.3 3.9 47 5.2 W 13 22 7 12 1010.1 1010.5 0.0
16/01:30pm 13.8 11.1 5.4 57 4.0 NNW 9 11 5 6 1010.5 1010.9 0.0
16/01:00pm 14.4 11.3 5.7 56 4.2 NW 11 15 6 8 1010.6 1011.0 0.0
16/12:30pm 13.5 10.5 7.5 67 3.0 NNW 13 19 7 10 1010.5 1010.9 0.0
16/12:00pm 12.8 9.3 7.3 69 2.7 NNW 15 20 8 11 1010.7 1011.1 0.0
16/11:30am 11.9 8.4 7.2 73 2.3 N 15 20 8 11 1011.0 1011.4 0.0
16/11:00am 11.5 8.3 7.0 74 2.2 NNE 13 17 7 9 1011.4 1011.8 0.0
16/10:30am 10.1 6.9 6.8 80 1.6 N 13 19 7 10 1011.5 1012.0 0.0
16/10:00am 9.9 7.5 7.2 83 1.3 N 9 13 5 7 1011.4 1011.8 0.0
16/09:30am 8.8 6.2 6.1 83 1.2 N 9 13 5 7 1011.3 1011.7 0.0
16/09:00am 8.5 5.1 6.0 84 1.2 N 13 17 7 9 1011.0 1011.4 0.2
16/08:30am 7.2 2.8 4.7 84 1.1 NNE 17 22 9 12 1010.8 1011.2 0.2
16/08:00am 7.8 3.0 4.4 79 1.5 NW 19 22 10 12 1010.3 1010.7 0.2
16/07:30am 7.5 2.6 4.3 80 1.4 NNW 19 24 10 13 1010.4 1010.8 0.2
16/07:00am 7.2 1.3 4.0 80 1.4 NNW 24 30 13 16 1009.8 1010.2 0.2
16/06:30am 7.2 1.7 4.0 80 1.4 N 22 28 12 15 1009.6 1010.0 0.2
16/06:00am 7.0 2.5 4.0 81 1.3 NNW 17 20 9 11 1009.4 1009.8 0.2
16/05:30am 7.4 2.3 4.2 80 1.4 N 20 28 11 15 1009.2 1009.6 0.2
16/05:00am 8.1 3.3 4.5 78 1.6 NW 19 24 10 13 1009.1 1009.5 0.2
16/04:30am 6.7 2.1 3.5 80 1.4 NW 17 20 9 11 1008.9 1009.3 0.2
16/04:00am 10.0 4.2 4.4 68 2.5 NNW 24 33 13 18 1009.1 1009.5 0.2
16/03:30am 7.6 2.8 4.6 81 1.3 N 19 28 10 15 1009.2 1009.6 0.2
16/03:00am 7.5 3.7 3.9 78 1.6 NNE 13 19 7 10 1009.4 1009.8 0.2
16/02:30am 8.1 4.2 3.2 71 2.1 NNW 13 28 7 15 1009.7 1010.1 0.2
16/02:10am 11.9 5.3 4.2 59 3.5 WNW 28 50 15 27 1009.3 1009.7 0.2
16/02:00am 10.8 4.9 4.0 63 3.1 WNW 24 32 13 17 1009.2 1009.6 0.2
16/01:30am 10.7 5.3 4.6 66 2.8 NW 22 28 12 15 1009.2 1009.6 0.2
16/01:00am 8.2 4.6 5.0 80 1.4 N 13 24 7 13 1009.6 1010.0 0.2
16/12:30am 6.7 2.7 3.1 78 1.5 NE 13 17 7 9 1009.8 1010.2 0.2
16/12:00am 7.8 4.8 4.0 77 1.7 NNE 9 13 5 7 1009.8 1010.2 0.2
 
Date/Time
EST
Temp
°C
App
Temp
°C
Dew
Point
°C
Rel
Hum
%
Delta-T
°C
Wind Press
QNH
hPa
Press
MSL
hPa
Rain since
9am
mm
Dir  Spd
km/h
Gust
km/h
Spd
kts
Gust
kts
15/11:30pm 6.8 4.0 3.4 79 1.4 NNW 7 13 4 7 1009.9 1010.3 0.2
15/11:00pm 7.7 4.7 4.1 78 1.6 NE 9 17 5 9 1009.8 1010.2 0.2
15/10:30pm 7.7 4.7 4.3 79 1.5 NNW 9 11 5 6 1010.0 1010.4 0.2
15/10:00pm 8.4 4.3 4.6 77 1.7 N 15 19 8 10 1009.8 1010.2 0.2
15/09:30pm 7.6 3.5 4.4 80 1.4 NE 15 19 8 10 1009.5 1009.9 0.2
15/09:00pm 9.0 6.1 4.8 75 1.9 NNE 9 11 5 6 1009.4 1009.8 0.2
15/08:30pm 9.4 4.1 5.0 74 2.0 NNW 22 28 12 15 1009.0 1009.4 0.2
15/08:00pm 8.7 3.4 4.9 77 1.7 NNW 22 28 12 15 1008.7 1009.1 0.2
15/07:30pm 9.5 3.9 5.5 76 1.8 NNW 24 30 13 16 1008.6 1009.0 0.2
15/07:00pm 9.6 4.2 6.3 80 1.5 NNW 24 33 13 18 1008.2 1008.6 0.2
15/06:30pm 9.1 5.2 7.1 87 0.9 NNW 17 24 9 13 1008.1 1008.5 0.2
15/06:00pm 8.9 4.4 7.0 88 0.9 NNW 20 24 11 13 1008.6 1009.0 0.2

Other formats

Comma delimited format used in spreadsheet applications
http://www.bom.gov.au/fwo/IDT60801/IDT60801.95966.axf

JavaScript Object Notation format (JSON) in row-major order
http://www.bom.gov.au/fwo/IDT60801/IDT60801.95966.json

Data quality

Most of these data are generated automatically and are frequently updated. Quality checks on data are not normally performed. It is possible for incorrect values to appear. Refer to information at About Latest Weather Observations and please check the disclaimer before using these data.